createdAt,value
2019-06-10T00:00:16.090Z,3.10
2019-06-10T00:05:18.101Z,3.10
2019-06-10T00:10:22.474Z,2.53
2019-06-10T00:15:28.543Z,2.93
2019-06-10T00:20:32.832Z,3.00
2019-06-10T00:25:37.168Z,2.63
2019-06-10T00:30:41.747Z,2.73
2019-06-10T00:35:46.161Z,2.33
2019-06-10T00:40:51.384Z,2.80
2019-06-10T00:45:55.966Z,2.83
2019-06-10T00:51:01.329Z,2.63
2019-06-10T00:56:07.306Z,2.53
2019-06-10T01:01:14.438Z,2.20
2019-06-10T01:06:17.991Z,2.63
2019-06-10T01:11:26.930Z,2.20
2019-06-10T01:16:28.107Z,2.40
2019-06-10T01:21:32.431Z,2.53
2019-06-10T01:26:36.978Z,2.17
2019-06-10T01:31:41.960Z,2.70
2019-06-10T01:36:46.467Z,2.40
2019-06-10T01:41:51.236Z,2.43
2019-06-10T01:46:56.671Z,2.70
2019-06-10T01:52:01.615Z,2.43
2019-06-10T01:57:06.094Z,2.67
2019-06-10T02:02:18.991Z,3.30
2019-06-10T02:07:25.291Z,2.27
2019-06-10T02:12:31.484Z,2.90
2019-06-10T02:17:35.385Z,2.60
2019-06-10T02:22:41.104Z,2.60
2019-06-10T02:27:45.602Z,2.80
2019-06-10T02:32:52.419Z,2.30
2019-06-10T02:37:55.800Z,2.43
2019-06-10T02:43:03.529Z,2.90
2019-06-10T02:48:06.832Z,2.60
2019-06-10T02:53:13.538Z,2.07
2019-06-10T02:58:19.182Z,2.30
2019-06-10T03:03:35.905Z,2.63
2019-06-10T03:08:32.779Z,2.40
2019-06-10T03:13:35.869Z,2.87
2019-06-10T03:18:40.206Z,2.30
2019-06-10T03:23:44.553Z,2.37
2019-06-10T03:28:48.983Z,2.60
2019-06-10T03:33:54.376Z,2.67
2019-06-10T03:38:58.989Z,2.50
2019-06-10T03:44:03.222Z,2.37
2019-06-10T03:49:07.442Z,3.33
2019-06-10T03:54:13.181Z,2.70
2019-06-10T03:59:17.546Z,3.30
2019-06-10T04:04:23.976Z,3.40
2019-06-10T04:09:28.879Z,3.27
2019-06-10T04:14:33.321Z,3.67
2019-06-10T04:19:37.548Z,3.43
2019-06-10T04:24:43.154Z,3.90
2019-06-10T04:29:47.568Z,3.53
2019-06-10T04:34:52.987Z,4.60
2019-06-10T04:39:57.658Z,3.53
2019-06-10T04:45:03.150Z,3.67
2019-06-10T04:50:20.734Z,4.33
2019-06-10T04:55:14.777Z,4.53
2019-06-10T05:00:19.416Z,4.13
2019-06-10T05:05:26.582Z,3.83
2019-06-10T05:10:33.007Z,3.30
2019-06-10T05:15:36.607Z,3.67
2019-06-10T05:20:52.071Z,3.97
2019-06-10T05:25:46.916Z,3.87
2019-06-10T05:30:53.204Z,3.67
2019-06-10T05:35:57.223Z,3.50
2019-06-10T05:41:02.841Z,3.87
2019-06-10T05:46:08.663Z,3.97
2019-06-10T05:51:13.006Z,5.03
2019-06-10T05:56:17.230Z,5.00
2019-06-10T06:01:22.872Z,5.30
2019-06-10T06:06:27.547Z,5.20
2019-06-10T06:11:33.475Z,5.60
2019-06-10T06:16:38.281Z,6.87
2019-06-10T06:21:47.352Z,5.57
2019-06-10T06:26:48.581Z,6.23
2019-06-10T06:31:52.849Z,6.20
2019-06-10T06:36:57.179Z,5.87
2019-06-10T06:42:02.276Z,6.60
2019-06-10T06:47:06.724Z,6.30
2019-06-10T06:52:12.854Z,6.83
2019-06-10T06:57:17.457Z,7.37
2019-06-10T07:02:22.748Z,8.33
2019-06-10T07:07:28.277Z,7.47
2019-06-10T07:12:36.120Z,7.50
2019-06-10T07:17:40.769Z,8.07
2019-06-10T07:22:46.555Z,7.63
2019-06-10T07:27:52.695Z,8.10
2019-06-10T07:32:57.137Z,7.83
2019-06-10T07:38:03.090Z,8.17
2019-06-10T07:43:07.530Z,8.13
2019-06-10T07:48:12.256Z,8.27
2019-06-10T07:53:16.722Z,9.87
2019-06-10T07:58:22.440Z,7.90
2019-06-10T08:03:26.912Z,9.57
2019-06-10T08:08:32.841Z,8.10
2019-06-10T08:13:37.306Z,6.77
2019-06-10T08:19:13.925Z,5.80
2019-06-10T08:23:48.573Z,6.27
2019-06-10T08:28:53.278Z,5.07
2019-06-10T08:33:57.629Z,5.93
2019-06-10T08:39:03.197Z,6.87
2019-06-10T08:44:07.890Z,6.30
2019-06-10T08:49:12.724Z,6.33
2019-06-10T08:54:17.391Z,5.37
2019-06-10T08:59:23.097Z,5.23
2019-06-10T09:04:29.448Z,5.77
2019-06-10T09:09:33.671Z,5.47
2019-06-10T09:14:38.677Z,5.23
2019-06-10T09:19:46.095Z,5.30
2019-06-10T09:24:52.385Z,5.60
2019-06-10T09:29:55.631Z,5.10
2019-06-10T09:35:03.212Z,4.40
2019-06-10T09:40:07.584Z,4.90
2019-06-10T09:45:12.977Z,5.10
2019-06-10T09:50:33.305Z,6.13
2019-06-10T09:55:38.225Z,5.80
2019-06-10T10:00:47.311Z,5.87
2019-06-10T10:05:59.485Z,5.10
2019-06-10T10:10:58.783Z,5.23
2019-06-10T10:16:02.640Z,5.17
2019-06-10T10:21:07.188Z,6.03
2019-06-10T10:26:13.121Z,5.77
2019-06-10T10:31:17.301Z,5.43
2019-06-10T10:36:22.602Z,6.17
2019-06-10T10:41:27.118Z,5.63
2019-06-10T10:46:32.599Z,5.73
2019-06-10T10:51:37.097Z,6.60
2019-06-10T10:56:44.667Z,5.70
2019-06-10T11:01:49.447Z,6.60
2019-06-10T11:06:55.649Z,6.37
2019-06-10T11:12:02.787Z,7.30
2019-06-10T11:17:06.435Z,6.07
2019-06-10T11:22:12.661Z,6.23
2019-06-10T11:27:17.174Z,6.50
2019-06-10T11:32:21.486Z,6.93
2019-06-10T11:37:25.776Z,7.33
2019-06-10T11:42:33.265Z,7.33
2019-06-10T11:47:37.079Z,6.47
2019-06-10T11:52:43.313Z,7.53
2019-06-10T11:57:47.912Z,7.60
2019-06-10T12:02:53.826Z,6.83
2019-06-10T12:08:01.648Z,6.97
2019-06-10T12:13:07.326Z,7.17
2019-06-10T12:18:13.016Z,7.83
2019-06-10T12:23:16.622Z,8.47
2019-06-10T12:28:21.054Z,7.23
2019-06-10T12:33:25.709Z,8.70
2019-06-10T12:38:32.536Z,8.87
2019-06-10T12:43:36.125Z,9.40
2019-06-10T12:48:42.741Z,9.37
2019-06-10T12:53:46.546Z,8.03
2019-06-10T12:58:54.089Z,9.77
2019-06-10T13:03:59.279Z,8.77
2019-06-10T13:09:06.353Z,8.83
2019-06-10T13:14:13.003Z,11.33
2019-06-10T13:19:17.000Z,9.40
2019-06-10T13:24:22.598Z,10.53
2019-06-10T13:29:29.475Z,9.60
2019-06-10T13:34:33.921Z,9.73
2019-06-10T13:39:38.355Z,9.57
2019-06-10T13:44:42.817Z,10.50
2019-06-10T13:49:50.383Z,9.60
2019-06-10T13:54:54.828Z,9.37
2019-06-10T14:00:02.725Z,9.97
2019-06-10T14:05:12.133Z,10.70
2019-06-10T14:10:18.028Z,10.67
2019-06-10T14:15:22.429Z,9.47
2019-06-10T14:20:25.779Z,9.70
2019-06-10T14:25:30.263Z,8.77
2019-06-10T14:30:34.712Z,8.90
2019-06-10T14:35:38.899Z,10.00
2019-06-10T14:40:43.507Z,8.60
2019-06-10T14:45:47.816Z,8.37
2019-06-10T14:50:52.088Z,10.77
2019-06-10T14:55:57.506Z,9.40
2019-06-10T15:01:04.824Z,7.60
2019-06-10T15:06:09.181Z,8.27
2019-06-10T15:11:14.192Z,8.00
2019-06-10T15:16:18.446Z,8.00
2019-06-10T15:21:24.007Z,7.70
2019-06-10T15:26:28.445Z,7.70
2019-06-10T15:31:33.786Z,7.13
2019-06-10T15:36:43.278Z,8.40
2019-06-10T15:41:54.658Z,7.03
2019-06-10T15:47:03.089Z,8.07
2019-06-10T15:52:08.665Z,8.57
2019-06-10T15:57:28.548Z,7.47
2019-06-10T16:02:20.687Z,7.43
2019-06-10T16:07:25.692Z,7.43
2019-06-10T16:12:32.902Z,7.30
2019-06-10T16:17:36.106Z,8.10
2019-06-10T16:22:42.703Z,6.13
2019-06-10T16:27:50.857Z,7.17
2019-06-10T16:32:53.108Z,7.17
2019-06-10T16:37:57.508Z,7.85
2019-06-10T16:43:01.835Z,7.83
2019-06-10T16:48:06.173Z,7.60
2019-06-10T16:53:13.427Z,7.37
2019-06-10T16:58:18.174Z,6.65
2019-06-10T17:03:25.094Z,7.37
2019-06-10T17:08:28.770Z,8.53
2019-06-10T17:13:33.157Z,7.00
2019-06-10T17:18:38.106Z,7.03
2019-06-10T17:23:43.353Z,6.83
2019-06-10T17:28:48.428Z,6.80
2019-06-10T17:33:53.205Z,6.80
2019-06-10T17:38:58.032Z,6.80
2019-06-10T17:44:03.287Z,7.00
2019-06-10T17:49:07.819Z,7.63
2019-06-10T17:54:12.941Z,6.67
2019-06-10T17:59:17.353Z,6.47
2019-06-10T18:04:22.693Z,6.73
2019-06-10T18:09:27.948Z,6.47
2019-06-10T18:14:33.305Z,6.57
2019-06-10T18:19:38.261Z,6.90
2019-06-10T18:24:43.215Z,8.63
2019-06-10T18:29:47.825Z,6.70
2019-06-10T18:34:52.209Z,7.30
2019-06-10T18:39:56.793Z,8.37
2019-06-10T18:45:02.700Z,7.40
2019-06-10T18:50:09.140Z,8.27
2019-06-10T18:55:15.840Z,7.67
2019-06-10T19:00:22.959Z,7.23
2019-06-10T19:05:28.533Z,7.93
2019-06-10T19:10:34.306Z,8.27
2019-06-10T19:15:40.448Z,9.53
2019-06-10T19:20:45.362Z,8.90
2019-06-10T19:25:52.489Z,9.77
2019-06-10T19:30:57.253Z,9.80
2019-06-10T19:36:02.267Z,8.53
2019-06-10T19:41:06.776Z,9.63
2019-06-10T19:46:12.883Z,10.57
2019-06-10T19:51:17.446Z,9.87
2019-06-10T19:56:24.192Z,10.20
2019-06-10T20:01:27.664Z,9.30
2019-06-10T20:06:32.352Z,10.57
2019-06-10T20:11:38.349Z,9.07
2019-06-10T20:16:44.667Z,9.00
2019-06-10T20:21:49.102Z,9.90
2019-06-10T20:26:53.963Z,10.50
2019-06-10T20:31:58.272Z,10.03
2019-06-10T20:37:04.751Z,10.07
2019-06-10T20:42:08.524Z,9.77
2019-06-10T20:47:14.251Z,10.30
2019-06-10T20:52:19.007Z,11.00
2019-06-10T20:57:27.083Z,12.03
2019-06-10T21:02:32.628Z,11.17
2019-06-10T21:07:39.129Z,10.00
2019-06-10T21:12:46.766Z,11.00
2019-06-10T21:17:50.793Z,11.53
2019-06-10T21:22:55.143Z,11.13
2019-06-10T21:27:59.609Z,11.50
2019-06-10T21:33:04.035Z,10.43
2019-06-10T21:38:08.280Z,10.60
2019-06-10T21:43:12.995Z,11.03
2019-06-10T21:48:17.483Z,10.87
2019-06-10T21:53:22.447Z,12.40
2019-06-10T21:58:26.821Z,10.97
2019-06-10T22:03:32.248Z,11.00
2019-06-10T22:08:42.435Z,12.87
2019-06-10T22:13:48.229Z,13.27
2019-06-10T22:18:52.896Z,14.13
2019-06-10T22:23:57.514Z,15.37
2019-06-10T22:29:02.067Z,17.37
2019-06-10T22:34:06.486Z,17.43
2019-06-10T22:39:12.501Z,16.20
2019-06-10T22:44:16.815Z,16.63
2019-06-10T22:49:23.502Z,17.53
2019-06-10T22:54:27.270Z,17.57
2019-06-10T22:59:31.666Z,18.23
2019-06-10T23:04:36.084Z,18.30
2019-06-10T23:09:42.676Z,16.93
2019-06-10T23:14:48.633Z,15.40
2019-06-10T23:19:53.947Z,16.90
2019-06-10T23:25:00.521Z,15.77
2019-06-10T23:30:11.465Z,16.90
2019-06-10T23:35:12.562Z,15.83
2019-06-10T23:40:16.705Z,16.47
2019-06-10T23:45:22.453Z,16.53
2019-06-10T23:50:26.906Z,16.43
2019-06-10T23:55:32.032Z,16.37
